Time;durP1;ratioP1;P1;durP2;ratioP2;P2;SDS_P1;SDS_P2;PMS_P1;PMS_P2;Temp;Humidity;BMP_temperature;BMP_pressure;BME280_temperature;BME280_humidity;BME280_pressure;Samples;Min_cycle;Max_cycle;Signal;HPM_P1;HPM_P2
2021/09/22 00:01:30;;;;;;;3.90;3.60;;;;;;;19.36;69.88;101472.94;4985590;28;102339;-49
2021/09/22 00:03:57;;;;;;;3.70;3.40;;;;;;;19.34;69.92;101462.22;4983404;28;103839;-48
2021/09/22 00:06:23;;;;;;;3.95;3.60;;;;;;;19.34;69.95;101459.47;4974795;28;103217;-47
2021/09/22 00:09:01;;;;;;;3.53;3.22;;;;;;;19.35;70.09;101465.78;4979569;28;102347;-48
2021/09/22 00:11:28;;;;;;;3.55;3.25;;;;;;;19.34;69.63;101466.94;4987417;28;102880;-48
2021/09/22 00:13:55;;;;;;;3.70;3.40;;;;;;;19.33;69.83;101459.75;4985215;28;104822;-47
2021/09/22 00:16:28;;;;;;;3.38;3.08;;;;;;;19.35;69.92;101468.56;4984730;28;101925;-47
2021/09/22 00:18:56;;;;;;;3.70;3.40;;;;;;;19.34;69.78;101464.16;4975553;28;102500;-48
2021/09/22 00:21:25;;;;;;;3.42;3.13;;;;;;;19.35;69.67;101465.78;4986249;28;103065;-48
2021/09/22 00:23:52;;;;;;;3.47;3.27;;;;;;;19.35;69.64;101465.78;4986128;28;102909;-48
2021/09/22 00:26:21;;;;;;;3.55;3.25;;;;;;;19.33;69.89;101457.84;4984613;28;102840;-49
2021/09/22 00:28:48;;;;;;;3.67;3.38;;;;;;;19.33;69.83;101463.34;4978939;28;102260;-48
2021/09/22 00:31:16;;;;;;;3.38;3.00;;;;;;;19.34;69.89;101464.97;4985333;28;102744;-48
2021/09/22 00:33:42;;;;;;;3.85;3.45;;;;;;;19.34;69.69;101459.47;4973855;28;103675;-48
2021/09/22 00:36:09;;;;;;;3.75;3.20;;;;;;;19.34;69.86;101459.47;4977361;28;102434;-49
2021/09/22 00:38:36;;;;;;;3.55;3.25;;;;;;;19.32;69.85;101461.72;4982974;28;102444;-49
2021/09/22 00:41:03;;;;;;;3.20;2.97;;;;;;;19.33;69.67;101457.84;4975784;28;102514;-49
2021/09/22 00:43:31;;;;;;;3.58;3.28;;;;;;;19.34;69.96;101470.50;4986058;28;104035;-48
2021/09/22 00:46:03;;;;;;;3.28;3.08;;;;;;;19.32;69.69;101461.72;4978050;28;102246;-49
2021/09/22 00:48:32;;;;;;;3.50;3.20;;;;;;;19.32;69.93;101450.66;4981633;28;102292;-48
2021/09/22 00:51:01;;;;;;;3.40;3.10;;;;;;;19.32;70.12;101450.66;4982956;28;102791;-49
2021/09/22 00:53:28;;;;;;;3.90;3.60;;;;;;;19.32;69.77;101438.81;4981361;28;104021;-48
2021/09/22 00:55:55;;;;;;;3.30;3.08;;;;;;;19.34;69.79;101445.66;4985269;28;102611;-49
2021/09/22 00:58:21;;;;;;;3.70;3.38;;;;;;;19.32;69.66;101445.16;4985504;28;102486;-49
2021/09/22 01:00:49;;;;;;;3.90;3.60;;;;;;;19.32;69.80;101445.16;4980484;28;102329;-48
2021/09/22 01:03:16;;;;;;;3.50;3.20;;;;;;;19.32;69.75;101439.63;4980077;28;102621;-49
2021/09/22 01:05:50;;;;;;;3.25;2.95;;;;;;;19.31;69.79;101429.72;4974383;28;102660;-48
2021/09/22 01:08:20;;;;;;;3.45;3.15;;;;;;;19.32;70.09;101434.09;4974583;28;102107;-49
2021/09/22 01:10:49;;;;;;;3.93;3.50;;;;;;;19.32;70.04;101428.59;4975544;28;102757;-49
2021/09/22 01:13:17;;;;;;;3.20;2.93;;;;;;;19.32;70.03;101430.53;4978253;28;104202;-49
2021/09/22 01:15:44;;;;;;;3.27;3.07;;;;;;;19.30;69.95;101425.34;4984753;28;102703;-49
2021/09/22 01:18:17;;;;;;;3.45;3.15;;;;;;;19.31;69.76;101438.00;4985744;28;102341;-49
2021/09/22 01:20:46;;;;;;;3.83;3.53;;;;;;;19.31;69.51;101432.50;4975222;28;102299;-49
2021/09/22 01:23:17;;;;;;;3.55;3.17;;;;;;;19.32;70.09;101431.34;4975177;28;103922;-49
2021/09/22 01:25:50;;;;;;;3.67;3.30;;;;;;;19.31;69.91;101432.50;4978423;28;102608;-51
2021/09/22 01:28:19;;;;;;;2.90;2.70;;;;;;;19.32;69.95;101433.28;4978059;28;102299;-48
2021/09/22 01:30:47;;;;;;;3.55;3.25;;;;;;;19.31;69.94;101420.63;4987005;28;102976;-48
2021/09/22 01:33:16;;;;;;;3.33;3.03;;;;;;;19.31;69.83;101421.44;4973877;28;104075;-48
2021/09/22 01:35:45;;;;;;;3.40;3.10;;;;;;;19.30;69.71;101419.81;4998034;28;102500;-48
2021/09/22 01:38:20;;;;;;;3.70;3.08;;;;;;;19.30;69.81;101419.81;4982391;28;102502;-47
2021/09/22 01:40:55;;;;;;;3.63;3.33;;;;;;;19.31;69.68;101423.41;4983589;28;102279;-49
2021/09/22 01:43:23;;;;;;;3.30;3.00;;;;;;;19.30;69.91;101422.59;4982613;28;103737;-49
2021/09/22 01:45:55;;;;;;;3.30;3.00;;;;;;;19.29;69.76;101418.16;4981322;28;102213;-47
2021/09/22 01:48:21;;;;;;;3.40;3.10;;;;;;;19.30;70.03;101419.81;4969083;28;102692;-48
2021/09/22 01:50:48;;;;;;;3.60;3.30;;;;;;;19.29;70.06;101418.16;4974302;28;103255;-48
2021/09/22 01:53:18;;;;;;;3.35;3.15;;;;;;;19.30;69.96;101422.59;4975271;28;103802;-48
2021/09/22 01:55:45;;;;;;;3.20;2.90;;;;;;;19.30;69.51;101425.34;4972477;28;102348;-48
2021/09/22 01:58:13;;;;;;;3.00;2.80;;;;;;;19.29;69.69;101417.34;4982746;28;102711;-49
2021/09/22 02:00:40;;;;;;;3.67;2.95;;;;;;;19.30;69.90;101424.53;4986849;28;102611;-49
2021/09/22 02:03:07;;;;;;;3.00;2.80;;;;;;;19.29;70.11;101418.16;4983368;28;103908;-49
2021/09/22 02:05:33;;;;;;;3.25;3.00;;;;;;;19.29;69.66;101418.16;4978322;28;102705;-49
2021/09/22 02:08:01;;;;;;;4.00;3.58;;;;;;;19.29;70.04;101417.34;4985165;28;103218;-48
2021/09/22 02:10:32;;;;;;;3.22;2.92;;;;;;;19.28;70.09;101402.75;4983144;28;102163;-48
2021/09/22 02:12:59;;;;;;;3.40;3.10;;;;;;;19.28;69.90;101416.56;4974577;28;104164;-48
2021/09/22 02:15:26;;;;;;;2.95;2.75;;;;;;;19.28;69.84;101422.06;4981570;28;103180;-48
2021/09/22 02:17:55;;;;;;;;;;;;;;;19.29;70.01;101420.13;4984966;28;102516;-49
2021/09/22 02:20:21;;;;;;;3.35;3.08;;;;;;;19.28;70.23;101421.25;4973859;28;102797;-49
2021/09/22 02:22:52;;;;;;;3.53;3.22;;;;;;;19.28;70.02;101419.31;4982549;28;104090;-48
2021/09/22 02:25:19;;;;;;;3.33;3.03;;;;;;;19.27;70.08;101420.44;4979576;28;102621;-49
2021/09/22 02:27:48;;;;;;;3.00;2.70;;;;;;;19.26;69.72;101413.31;4996436;28;102456;-49
2021/09/22 02:30:18;;;;;;;3.20;2.90;;;;;;;19.27;69.92;101423.22;4981044;28;102480;-48
2021/09/22 02:32:46;;;;;;;2.70;2.50;;;;;;;19.27;69.62;101414.13;4984625;28;103973;-49
2021/09/22 02:35:14;;;;;;;2.60;2.40;;;;;;;19.26;69.82;101418.81;4982788;28;102995;-48
2021/09/22 02:37:46;;;;;;;2.97;2.75;;;;;;;19.27;70.07;101414.94;5000171;28;102312;-48
2021/09/22 02:40:17;;;;;;;3.35;3.05;;;;;;;19.27;69.76;101414.94;4985291;28;102757;-49
2021/09/22 02:42:45;;;;;;;3.03;2.83;;;;;;;19.26;69.92;101409.69;4986934;28;103930;-48
2021/09/22 02:45:14;;;;;;;3.13;2.83;;;;;;;19.26;69.78;101402.25;4983036;28;103384;-48
2021/09/22 02:47:41;;;;;;;2.80;2.60;;;;;;;19.26;69.84;101413.31;4979103;28;102304;-48
2021/09/22 02:50:08;;;;;;;2.40;2.20;;;;;;;19.26;69.79;101427.09;4986342;28;102232;-49
2021/09/22 02:52:46;;;;;;;2.78;2.58;;;;;;;19.26;69.75;101415.22;4986888;28;103896;-49
2021/09/22 02:55:13;;;;;;;3.60;2.80;;;;;;;19.25;69.86;101417.16;4984868;28;102311;-49
2021/09/22 02:57:43;;;;;;;3.10;2.80;;;;;;;19.26;69.81;101416.06;4988303;28;102227;-49
2021/09/22 03:00:12;;;;;;;2.88;2.65;;;;;;;19.25;69.94;101425.44;4993115;28;102732;-49
2021/09/22 03:02:40;;;;;;;2.80;2.60;;;;;;;19.26;69.83;101415.22;4988353;28;103924;-50
2021/09/22 03:05:08;;;;;;;2.97;2.72;;;;;;;19.24;69.75;101421.06;4982112;28;102617;-49
2021/09/22 03:07:35;;;;;;;3.30;2.97;;;;;;;19.25;69.94;101417.16;4987025;28;102830;-49
2021/09/22 03:10:03;;;;;;;2.35;2.15;;;;;;;19.25;69.79;101421.88;4986945;28;103233;-50
2021/09/22 03:12:29;;;;;;;2.85;2.60;;;;;;;19.24;70.14;101418.31;4985478;28;103920;-49
2021/09/22 03:14:59;;;;;;;2.97;2.70;;;;;;;19.24;69.68;101415.53;4982000;28;102119;-49
2021/09/22 03:17:30;;;;;;;2.72;2.53;;;;;;;19.24;69.74;101415.53;4985760;28;102828;-49
2021/09/22 03:19:58;;;;;;;3.40;3.10;;;;;;;19.24;69.90;101410.03;4979348;28;102329;-48
2021/09/22 03:22:24;;;;;;;2.95;2.72;;;;;;;19.24;69.74;101409.22;4976580;28;104092;-48
2021/09/22 03:24:53;;;;;;;2.70;2.50;;;;;;;19.24;69.96;101415.53;4980650;28;102453;-49
2021/09/22 03:27:19;;;;;;;2.83;2.63;;;;;;;19.24;70.03;101417.50;4984791;28;102309;-48
2021/09/22 03:29:46;;;;;;;2.70;2.50;;;;;;;19.24;69.81;101414.72;4975662;28;102404;-49
2021/09/22 03:32:13;;;;;;;4.00;2.50;;;;;;;19.24;69.65;101415.53;4981263;28;103864;-48
2021/09/22 03:34:39;;;;;;;2.92;2.72;;;;;;;19.24;70.00;101410.03;4989917;28;101965;-49
2021/09/22 03:37:09;;;;;;;3.00;2.80;;;;;;;19.24;70.04;101409.22;4987969;28;102321;-48
2021/09/22 03:39:36;;;;;;;2.50;2.30;;;;;;;19.23;70.03;101413.94;4983600;28;102672;-48
2021/09/22 03:42:03;;;;;;;2.85;2.65;;;;;;;19.24;69.77;101409.22;4985478;28;102682;-49
2021/09/22 03:44:30;;;;;;;2.85;2.55;;;;;;;19.23;69.87;101407.59;4980304;28;102339;-47
2021/09/22 03:46:58;;;;;;;2.70;2.50;;;;;;;19.23;70.14;101402.88;4984772;28;102376;-48
2021/09/22 03:49:24;;;;;;;2.80;2.60;;;;;;;19.23;69.75;101413.13;4985407;28;103073;-48
2021/09/22 03:51:52;;;;;;;2.80;2.60;;;;;;;19.22;69.78;101409.50;4976758;28;103894;-49
2021/09/22 03:54:22;;;;;;;2.88;2.67;;;;;;;19.23;69.75;101405.66;4983116;28;102460;-49
2021/09/22 03:56:48;;;;;;;2.70;2.50;;;;;;;19.23;70.04;101404.84;4988445;28;102584;-47
2021/09/22 03:59:15;;;;;;;2.75;2.55;;;;;;;19.22;69.78;101401.22;4989416;28;102504;-48
2021/09/22 04:01:42;;;;;;;2.60;2.40;;;;;;;19.23;69.79;101402.88;4983332;28;103713;-49
2021/09/22 04:04:11;;;;;;;2.88;2.55;;;;;;;19.22;70.09;101395.72;5000466;28;102284;-49
2021/09/22 04:06:37;;;;;;;2.80;2.60;;;;;;;19.21;69.76;101399.63;4986869;28;102183;-48
2021/09/22 04:09:04;;;;;;;2.67;2.47;;;;;;;19.22;69.84;101398.47;4988787;28;102197;-49
2021/09/22 04:11:32;;;;;;;2.50;2.30;;;;;;;19.21;69.68;101394.09;4983106;28;104038;-49
2021/09/22 04:14:00;;;;;;;2.75;2.55;;;;;;;19.21;70.10;101394.09;4979037;28;102235;-49
2021/09/22 04:16:27;;;;;;;2.70;2.50;;;;;;;19.21;69.66;101394.09;4983048;28;102660;-49
2021/09/22 04:19:01;;;;;;;2.72;2.53;;;;;;;19.21;69.87;101394.09;4981864;28;102250;-50
2021/09/22 04:21:27;;;;;;;2.70;2.50;;;;;;;19.20;69.88;101392.47;4982674;28;103675;-49
2021/09/22 04:23:57;;;;;;;2.88;2.67;;;;;;;19.21;69.77;101391.34;4977483;28;102631;-48
2021/09/22 04:26:24;;;;;;;2.58;2.38;;;;;;;19.21;70.13;101388.56;4975088;28;102577;-49
2021/09/22 04:28:53;;;;;;;2.75;2.55;;;;;;;19.20;69.87;101384.19;4995284;28;102149;-48
2021/09/22 04:31:20;;;;;;;2.30;2.10;;;;;;;19.20;70.24;101385.00;5001096;28;103890;-48
2021/09/22 04:33:49;;;;;;;2.58;2.38;;;;;;;19.19;69.86;101386.13;5001280;28;101507;-49
2021/09/22 04:36:16;;;;;;;2.97;2.78;;;;;;;19.20;69.86;101386.94;5001004;28;101738;-49
2021/09/22 04:38:45;;;;;;;3.22;2.78;;;;;;;19.19;70.09;101386.13;4984951;28;102227;-48
2021/09/22 04:41:11;;;;;;;2.88;2.58;;;;;;;19.20;69.51;101384.19;4985275;28;104402;-49
2021/09/22 04:43:40;;;;;;;2.58;2.38;;;;;;;19.20;70.11;101386.94;4978627;28;102165;-49
2021/09/22 04:46:08;;;;;;;2.65;2.45;;;;;;;19.19;69.92;101377.06;4977748;28;102392;-49
2021/09/22 04:48:35;;;;;;;2.95;2.75;;;;;;;19.19;70.19;101377.88;4981806;28;102585;-48
2021/09/22 04:51:02;;;;;;;2.53;2.33;;;;;;;19.19;69.94;101368.78;4979018;28;104019;-48
2021/09/22 04:53:28;;;;;;;3.85;2.65;;;;;;;19.19;69.72;101372.34;4979926;28;102117;-48
2021/09/22 04:55:55;;;;;;;2.85;2.65;;;;;;;19.19;69.90;101368.78;4985748;28;102348;-49
2021/09/22 04:58:23;;;;;;;2.90;2.70;;;;;;;19.19;69.70;101366.00;4975311;28;102239;-48
2021/09/22 05:00:49;;;;;;;3.15;2.72;;;;;;;19.19;70.17;101368.78;4976544;28;104304;-48
2021/09/22 05:03:17;;;;;;;2.63;2.42;;;;;;;19.19;70.17;101368.78;4985743;28;102528;-49
2021/09/22 05:05:44;;;;;;;2.80;2.60;;;;;;;19.19;70.11;101377.06;4978408;28;102568;-52
2021/09/22 05:08:18;;;;;;;2.65;2.45;;;;;;;19.19;69.90;101368.78;4980787;28;102169;-48
2021/09/22 05:10:45;;;;;;;3.20;2.90;;;;;;;19.19;69.75;101372.34;4982024;28;102723;-48
2021/09/22 05:13:11;;;;;;;2.78;2.58;;;;;;;19.19;70.12;101374.28;4978042;28;102208;-49
2021/09/22 05:15:39;;;;;;;2.20;2.00;;;;;;;19.19;69.65;101379.81;4978845;28;103621;-48
2021/09/22 05:18:06;;;;;;;2.55;2.35;;;;;;;19.19;69.73;101368.78;4981739;28;103525;-48
2021/09/22 05:20:37;;;;;;;2.60;2.40;;;;;;;19.18;70.32;101367.94;4978429;28;103967;-49
2021/09/22 05:23:10;;;;;;;3.08;2.65;;;;;;;19.18;69.69;101362.41;4976557;28;102179;-48
2021/09/22 05:25:38;;;;;;;2.70;2.47;;;;;;;19.19;69.50;101355.78;4977897;28;102347;-48
2021/09/22 05:28:04;;;;;;;2.60;2.40;;;;;;;19.20;69.63;101351.09;4974193;28;102295;-49
2021/09/22 05:30:31;;;;;;;2.20;2.00;;;;;;;19.20;70.11;101353.84;4980733;28;103974;-49
2021/09/22 05:32:58;;;;;;;2.38;2.17;;;;;;;19.21;69.73;101347.19;4979239;28;102295;-49
2021/09/22 05:35:26;;;;;;;2.33;2.13;;;;;;;19.21;69.77;101360.97;4977414;28;102230;-49
2021/09/22 05:37:54;;;;;;;1.67;1.58;;;;;;;19.20;70.03;101349.13;4977340;28;102794;-50
2021/09/22 05:40:24;;;;;;;2.23;2.07;;;;;;;19.21;69.69;101349.94;4977140;28;103866;-49
2021/09/22 05:42:51;;;;;;;2.20;2.00;;;;;;;19.20;69.83;101353.84;4986709;28;102212;-47
2021/09/22 05:45:18;;;;;;;2.55;2.35;;;;;;;19.21;69.83;101356.28;4981335;28;102620;-49
2021/09/22 05:47:45;;;;;;;2.55;2.35;;;;;;;19.22;69.86;101351.56;4980661;28;102203;-48
2021/09/22 05:50:13;;;;;;;2.25;2.05;;;;;;;19.23;69.57;101347.69;4983386;28;103691;-48
2021/09/22 05:52:39;;;;;;;2.03;1.92;;;;;;;19.23;69.73;101339.41;4982572;28;102201;-49
2021/09/22 05:55:09;;;;;;;2.30;2.13;;;;;;;19.22;69.87;101340.53;4979905;28;102525;-48
2021/09/22 05:57:35;;;;;;;;;;;;;;;19.23;70.04;101336.66;4999204;28;102891;-49
2021/09/22 06:00:04;;;;;;;1.98;1.88;;;;;;;19.23;69.61;101335.84;4978368;28;103715;-49
2021/09/22 06:02:31;;;;;;;2.50;2.30;;;;;;;19.24;70.08;101334.72;4981816;28;102824;-48
2021/09/22 06:04:58;;;;;;;2.20;2.05;;;;;;;19.24;69.52;101332.75;4977275;28;103521;-48
2021/09/22 06:07:24;;;;;;;2.10;1.92;;;;;;;19.24;70.17;101332.75;4975674;28;106273;-49
2021/09/22 06:09:51;;;;;;;2.53;2.33;;;;;;;19.24;70.03;101331.94;4982405;28;104025;-49
2021/09/22 06:12:26;;;;;;;2.55;2.35;;;;;;;19.24;69.80;101335.53;4985385;28;102546;-50
2021/09/22 06:14:53;;;;;;;1.98;1.88;;;;;;;19.25;70.05;101339.91;4986411;28;102621;-49
2021/09/22 06:17:25;;;;;;;2.20;2.00;;;;;;;19.25;69.75;101328.06;4984809;28;102715;-48
2021/09/22 06:19:51;;;;;;;4.53;2.65;;;;;;;19.24;70.33;101327.25;4975940;28;103873;-48
2021/09/22 06:22:24;;;;;;;2.53;2.33;;;;;;;19.25;70.26;101334.38;4983967;28;102459;-49
2021/09/22 06:24:51;;;;;;;3.30;3.00;;;;;;;19.25;69.78;101326.09;4989070;28;102561;-49
2021/09/22 06:27:18;;;;;;;3.30;3.00;;;;;;;19.25;69.84;101326.09;4984605;28;102736;-48
2021/09/22 06:29:47;;;;;;;3.17;2.88;;;;;;;19.25;70.24;101326.09;4978862;28;103901;-50
2021/09/22 06:32:13;;;;;;;2.97;2.78;;;;;;;19.25;69.99;101328.88;4988471;28;102262;-49
2021/09/22 06:34:41;;;;;;;3.42;3.10;;;;;;;19.25;69.68;101328.88;4989883;28;102319;-49
2021/09/22 06:37:08;;;;;;;4.03;3.58;;;;;;;19.25;70.04;101326.09;4985845;28;102406;-49
2021/09/22 06:39:34;;;;;;;2.90;2.67;;;;;;;19.25;70.18;101334.38;4989985;28;102720;-49
2021/09/22 06:42:01;;;;;;;3.25;2.92;;;;;;;19.25;69.91;101334.38;4984446;28;102667;-49
2021/09/22 06:44:28;;;;;;;3.58;3.10;;;;;;;19.26;69.77;101330.53;4986162;28;102762;-48
2021/09/22 06:46:59;;;;;;;3.50;3.10;;;;;;;19.26;69.87;101336.03;4978867;28;102623;-49
2021/09/22 06:49:26;;;;;;;3.23;2.83;;;;;;;19.25;70.11;101328.88;4988505;28;104815;-49
2021/09/22 06:51:52;;;;;;;3.22;2.92;;;;;;;19.25;69.86;101334.38;4981365;28;102545;-49
2021/09/22 06:54:19;;;;;;;2.60;2.40;;;;;;;19.26;69.99;101338.78;4986813;28;102399;-48
2021/09/22 06:56:46;;;;;;;2.90;2.60;;;;;;;19.26;70.14;101335.19;4987961;28;102253;-48
2021/09/22 06:59:13;;;;;;;3.00;2.70;;;;;;;19.25;69.89;101328.88;4980697;28;102845;-49
2021/09/22 07:01:42;;;;;;;2.80;2.55;;;;;;;19.25;70.23;101330.81;4980326;28;102875;-48
2021/09/22 07:04:10;;;;;;;2.92;2.63;;;;;;;19.26;70.03;101335.19;4989084;28;102240;-48
2021/09/22 07:06:37;;;;;;;3.23;2.93;;;;;;;19.25;70.13;101336.34;4996641;28;102571;-48
2021/09/22 07:09:05;;;;;;;3.25;2.95;;;;;;;19.25;70.27;101342.66;4986287;28;104030;-49
2021/09/22 07:11:31;;;;;;;4.75;2.50;;;;;;;19.25;69.94;101339.91;4980033;28;102706;-48
2021/09/22 07:13:58;;;;;;;3.28;2.75;;;;;;;19.25;69.73;101345.41;4988443;28;102413;-47
2021/09/22 07:16:25;;;;;;;4.18;2.95;;;;;;;19.25;69.71;101345.41;4980440;28;102636;-49
2021/09/22 07:18:52;;;;;;;3.03;2.78;;;;;;;19.25;70.39;101345.41;4986539;28;103552;-49
2021/09/22 07:21:20;;;;;;;3.08;2.65;;;;;;;19.25;70.05;101344.63;4984477;28;102442;-48
2021/09/22 07:23:47;;;;;;;4.53;2.97;;;;;;;19.25;69.83;101339.91;4981396;28;102244;-50
2021/09/22 07:26:14;;;;;;;3.30;3.00;;;;;;;19.25;70.21;101334.38;4987813;28;102823;-48
2021/09/22 07:28:40;;;;;;;3.45;2.80;;;;;;;19.25;70.13;101345.41;4979809;28;103943;-48
2021/09/22 07:31:07;;;;;;;2.80;2.60;;;;;;;19.26;69.82;101343.47;4985336;28;101957;-48
2021/09/22 07:33:34;;;;;;;3.25;2.92;;;;;;;19.25;70.37;101339.09;4984407;28;102735;-48
2021/09/22 07:36:02;;;;;;;3.17;2.88;;;;;;;19.26;69.99;101335.19;4981541;28;102975;-47
2021/09/22 07:38:33;;;;;;;2.67;2.15;;;;;;;19.26;69.79;101336.03;4985369;28;103899;-47
2021/09/22 07:41:00;;;;;;;2.63;2.33;;;;;;;19.26;70.19;101333.28;4990876;28;102135;-48
2021/09/22 07:43:29;;;;;;;2.70;2.50;;;;;;;19.25;70.00;101345.41;4983176;28;102304;-47
2021/09/22 07:45:58;;;;;;;3.15;2.85;;;;;;;19.25;69.88;101334.38;4984031;28;103530;-49
2021/09/22 07:48:26;;;;;;;2.90;2.70;;;;;;;19.25;70.08;101334.38;4992126;28;104043;-48
2021/09/22 07:50:52;;;;;;;3.90;2.70;;;;;;;19.27;70.01;101331.31;4985079;28;102454;-48
2021/09/22 07:53:19;;;;;;;2.72;2.38;;;;;;;19.26;70.08;101329.69;4990270;28;102042;-48
2021/09/22 07:55:48;;;;;;;2.83;2.53;;;;;;;19.25;70.03;101328.88;4988495;28;102200;-48
2021/09/22 07:58:18;;;;;;;3.17;2.70;;;;;;;19.25;69.72;101320.59;4986428;28;102832;-48
2021/09/22 08:00:45;;;;;;;3.92;2.67;;;;;;;19.24;69.51;101316.22;4988167;28;102590;-47
2021/09/22 08:03:12;;;;;;;3.35;3.05;;;;;;;19.24;69.95;101313.44;4976945;28;103168;-47
2021/09/22 08:05:39;;;;;;;3.08;2.78;;;;;;;19.25;69.99;101312.31;4985868;28;103287;-47
2021/09/22 08:08:07;;;;;;;3.65;2.88;;;;;;;19.25;70.14;101322.53;4987175;28;103764;-48
2021/09/22 08:10:34;;;;;;;3.10;2.80;;;;;;;19.25;70.07;101311.50;4986626;28;104026;-49
2021/09/22 08:13:05;;;;;;;3.35;3.05;;;;;;;19.25;69.90;101312.31;4984803;28;107652;-50
2021/09/22 08:15:32;;;;;;;3.10;2.90;;;;;;;19.24;69.79;101310.69;4987963;28;102303;-49
2021/09/22 08:17:59;;;;;;;2.75;2.55;;;;;;;19.24;69.93;101318.97;4988373;28;103971;-47
2021/09/22 08:20:25;;;;;;;3.60;2.80;;;;;;;19.24;69.92;101310.69;4986592;28;102655;-49
2021/09/22 08:22:52;;;;;;;2.17;2.03;;;;;;;19.24;69.76;101294.13;4980930;28;102673;-49
2021/09/22 08:25:19;;;;;;;2.60;2.40;;;;;;;19.23;70.05;101291.69;4983691;28;102392;-49
2021/09/22 08:27:48;;;;;;;2.50;2.30;;;;;;;19.24;69.76;101296.88;4981491;28;103859;-49
2021/09/22 08:30:22;;;;;;;2.80;2.38;;;;;;;19.23;69.83;101278.72;4982712;28;101987;-48
2021/09/22 08:32:48;;;;;;;2.50;2.30;;;;;;;19.24;69.69;101279.53;4983597;28;102590;-48
2021/09/22 08:35:15;;;;;;;2.65;2.45;;;;;;;19.23;69.75;101275.97;4981413;28;102413;-49
2021/09/22 08:37:41;;;;;;;3.40;2.63;;;;;;;19.23;69.94;101262.16;4985527;28;103401;-48
2021/09/22 08:40:09;;;;;;;2.78;2.28;;;;;;;19.23;69.78;101275.97;4980007;28;102610;-49
2021/09/22 08:42:37;;;;;;;2.40;2.17;;;;;;;19.24;69.65;101262.97;4982510;28;102372;-49
2021/09/22 08:45:05;;;;;;;2.67;2.43;;;;;;;19.24;69.98;101260.22;4988258;28;102237;-49
2021/09/22 08:47:35;;;;;;;3.35;2.70;;;;;;;19.24;70.01;101271.25;4984455;28;103897;-49
2021/09/22 08:50:03;;;;;;;3.25;2.60;;;;;;;19.23;69.79;101264.91;4987160;28;102814;-48
2021/09/22 08:52:50;;;;;;;2.97;2.72;;;;;;;19.24;69.62;101254.69;4980024;28;102140;-49
2021/09/22 08:55:28;;;;;;;2.35;2.15;;;;;;;19.24;69.79;101260.22;4985455;28;102705;-47
2021/09/22 08:57:55;;;;;;;3.38;2.90;;;;;;;19.24;69.85;101260.22;4981771;28;103769;-47
2021/09/22 09:00:23;;;;;;;3.03;2.73;;;;;;;19.24;69.98;101265.72;4981248;28;103525;-47
2021/09/22 09:02:51;;;;;;;3.08;2.78;;;;;;;19.23;70.16;101259.41;4982078;28;102589;-48
2021/09/22 09:05:20;;;;;;;3.10;2.80;;;;;;;19.23;70.07;101259.41;4985579;28;102780;-48
2021/09/22 09:07:49;;;;;;;2.40;2.20;;;;;;;19.23;69.91;101259.41;4978413;28;103966;-47
2021/09/22 09:10:17;;;;;;;3.53;2.75;;;;;;;19.23;69.65;101259.41;4983779;28;102246;-49
2021/09/22 09:12:58;;;;;;;3.45;3.00;;;;;;;19.23;69.83;101248.38;4976870;28;102073;-50
2021/09/22 09:15:31;;;;;;;3.97;2.95;;;;;;;19.22;69.71;101252.22;4985830;28;102674;-48
2021/09/22 09:18:02;;;;;;;3.03;2.72;;;;;;;19.23;69.71;101242.84;4979597;28;103975;-49
2021/09/22 09:20:30;;;;;;;3.95;3.13;;;;;;;19.21;69.98;101242.34;4979352;28;104750;-50
2021/09/22 09:23:21;;;;;;;;;;;;;;;19.23;69.94;101248.38;4977121;28;102426;-47
2021/09/22 09:25:56;;;;;;;4.68;3.20;;;;;;;19.22;69.73;101243.94;4970957;28;102713;-49
2021/09/22 09:28:25;;;;;;;2.95;2.70;;;;;;;19.22;69.96;101252.22;4981767;28;104079;-48
2021/09/22 09:30:54;;;;;;;3.00;2.70;;;;;;;19.21;70.06;101250.59;4978129;28;102667;-48
2021/09/22 09:33:38;;;;;;;3.30;2.85;;;;;;;19.20;69.88;101243.47;4973491;28;102569;-50
2021/09/22 09:36:20;;;;;;;3.10;2.80;;;;;;;19.21;69.68;101251.41;4977958;28;102099;-47
2021/09/22 09:38:49;;;;;;;2.95;2.70;;;;;;;19.22;69.68;101252.22;4976951;28;103991;-48
2021/09/22 09:41:41;;;;;;;2.13;1.92;;;;;;;19.21;69.97;101247.84;4976986;28;102371;-48
2021/09/22 09:44:11;;;;;;;2.50;2.30;;;;;;;19.21;69.82;101251.41;4976834;28;102215;-49
2021/09/22 09:46:38;;;;;;;2.95;2.65;;;;;;;19.21;69.59;101250.59;4985107;28;102445;-49
2021/09/22 09:49:09;;;;;;;3.42;2.55;;;;;;;19.21;69.85;101240.38;4979437;28;103912;-49
2021/09/22 09:51:40;;;;;;;2.83;2.60;;;;;;;19.21;70.01;101236.81;4984810;28;102512;-48
2021/09/22 09:54:15;;;;;;;2.70;2.50;;;;;;;19.21;69.53;101239.56;4977988;28;102750;-49
2021/09/22 09:56:42;;;;;;;3.50;2.90;;;;;;;19.21;69.83;101236.81;4983665;28;102754;-48
2021/09/22 09:59:09;;;;;;;3.80;2.60;;;;;;;19.21;69.77;101236.81;4981075;28;104006;-48
2021/09/22 10:01:41;;;;;;;3.08;2.78;;;;;;;19.21;69.47;101228.53;4974978;28;102194;-49
2021/09/22 10:04:13;;;;;;;2.72;2.50;;;;;;;19.20;69.61;101233.25;4984121;28;102061;-49
2021/09/22 10:06:40;;;;;;;2.78;2.58;;;;;;;19.20;69.68;101226.91;4985103;28;102624;-49
2021/09/22 10:09:07;;;;;;;2.90;2.15;;;;;;;19.21;70.01;101234.06;4979118;28;104169;-48
2021/09/22 10:11:36;;;;;;;2.55;2.25;;;;;;;19.21;69.65;101231.28;4987070;28;102008;-50
2021/09/22 10:14:04;;;;;;;2.80;2.50;;;;;;;19.21;69.60;101228.53;4983745;28;102237;-48
2021/09/22 10:16:33;;;;;;;2.72;2.53;;;;;;;19.20;69.97;101222.22;4984498;28;102535;-50
2021/09/22 10:19:03;;;;;;;2.83;2.50;;;;;;;19.20;69.78;101226.91;4987928;28;104159;-48
2021/09/22 10:21:34;;;;;;;3.13;2.83;;;;;;;19.20;69.77;101222.22;4988472;28;102530;-49
2021/09/22 10:24:10;;;;;;;2.60;2.40;;;;;;;19.20;69.93;101224.16;4983332;28;102825;-48
2021/09/22 10:26:38;;;;;;;2.33;2.13;;;;;;;19.20;69.56;101222.22;4989309;28;103511;-48
2021/09/22 10:29:19;;;;;;;;;;;;;;;19.20;69.76;101222.22;4983536;28;103798;-49
2021/09/22 10:31:47;;;;;;;3.08;2.47;;;;;;;19.19;69.40;101220.59;4981772;28;102397;-49
2021/09/22 10:34:30;;;;;;;2.95;2.60;;;;;;;19.20;70.03;101211.16;4971894;28;102156;-49
2021/09/22 10:37:00;;;;;;;2.80;2.25;;;;;;;19.20;69.57;101215.88;4979733;28;102016;-49
2021/09/22 10:39:41;;;;;;;3.25;2.65;;;;;;;19.19;70.10;101217.84;4976739;28;103790;-49
2021/09/22 10:42:33;;;;;;;2.67;2.42;;;;;;;19.20;69.77;101210.38;4976678;28;102754;-48
2021/09/22 10:45:15;;;;;;;2.70;2.30;;;;;;;19.18;69.99;101216.19;4977669;28;102313;-49
2021/09/22 10:47:44;;;;;;;2.50;2.13;;;;;;;19.19;69.89;101208.75;4981656;28;102693;-48
2021/09/22 10:50:33;;;;;;;3.60;2.60;;;;;;;19.19;69.95;101215.06;4986545;28;103737;-50
2021/09/22 10:53:39;;;;;;;3.15;2.13;;;;;;;19.18;69.72;101218.94;4981433;28;102128;-48
2021/09/22 10:56:08;;;;;;;2.65;2.38;;;;;;;19.18;69.73;101213.41;4974846;28;102129;-48
2021/09/22 10:58:40;;;;;;;3.78;2.40;;;;;;;19.18;69.98;101210.66;4982086;28;102582;-49
2021/09/22 11:01:07;;;;;;;3.03;2.70;;;;;;;19.19;70.00;101211.50;4982812;28;103938;-49
2021/09/22 11:03:55;;;;;;;2.95;2.65;;;;;;;19.18;69.95;101213.41;4980777;28;102508;-48
2021/09/22 11:06:40;;;;;;;;;;;;;;;19.18;69.64;101207.91;4999937;28;103503;-47
2021/09/22 11:09:10;;;;;;;2.50;2.30;;;;;;;19.18;70.00;101201.56;4987465;28;102123;-48
2021/09/22 11:12:07;;;;;;;2.80;2.33;;;;;;;19.18;69.81;101193.28;4988335;28;103944;-49
2021/09/22 11:14:36;;;;;;;3.25;2.60;;;;;;;19.18;69.69;101193.28;4978841;28;102991;-49
2021/09/22 11:17:06;;;;;;;2.22;2.03;;;;;;;19.18;69.78;101196.06;4982044;28;102142;-48
2021/09/22 11:19:36;;;;;;;2.38;2.10;;;;;;;19.17;70.01;101189.72;4987113;28;102905;-48
2021/09/22 11:22:05;;;;;;;2.28;2.08;;;;;;;19.18;69.52;101176.75;4982569;28;104017;-50
2021/09/22 11:24:34;;;;;;;2.38;2.17;;;;;;;19.18;69.58;101179.50;4985055;28;102281;-47
2021/09/22 11:27:05;;;;;;;2.42;1.95;;;;;;;19.17;70.06;101177.88;4986254;28;102622;-49
2021/09/22 11:29:36;;;;;;;2.60;2.30;;;;;;;19.18;69.53;101168.47;4985447;28;102136;-48